Time;durP1;ratioP1;P1;durP2;ratioP2;P2;SDS_P1;SDS_P2;PMS_P1;PMS_P2;Temp;Humidity;BMP_temperature;BMP_pressure;BME280_temperature;BME280_humidity;BME280_pressure;Samples;Min_cycle;Max_cycle;Signal;HPM_P1;HPM_P2
2023/07/08 00:00:24;;;;;;;1.52;0.98;;;23.60;61.20;;;;;;5028246;28;20044;-76
2023/07/08 00:02:52;;;;;;;7.45;1.30;;;23.60;61.50;;;;;;5043921;28;20029;-76
2023/07/08 00:05:20;;;;;;;2.33;1.05;;;23.50;61.70;;;;;;5021581;28;20389;-77
2023/07/08 00:07:46;;;;;;;2.78;1.38;;;23.50;61.80;;;;;;5044592;28;20030;-77
2023/07/08 00:10:21;;;;;;;5.18;1.25;;;23.40;61.90;;;;;;5051959;28;20089;-77
2023/07/08 00:12:50;;;;;;;3.17;1.25;;;23.40;61.90;;;;;;5049009;28;20034;-77
2023/07/08 00:15:16;;;;;;;2.60;1.10;;;23.40;62.10;;;;;;5030830;28;20428;-77
2023/07/08 00:17:43;;;;;;;4.50;1.40;;;23.40;62.00;;;;;;5046340;28;20549;-76
2023/07/08 00:20:35;;;;;;;4.07;1.08;;;23.40;61.90;;;;;;5042161;28;20049;-77
2023/07/08 00:23:01;;;;;;;2.70;1.03;;;23.40;62.30;;;;;;5045550;28;20068;-76
2023/07/08 00:25:27;;;;;;;3.10;1.00;;;23.40;62.30;;;;;;5040319;28;20351;-77
2023/07/08 00:27:53;;;;;;;3.33;1.02;;;23.30;62.40;;;;;;5052735;28;20034;-77
2023/07/08 00:30:20;;;;;;;2.88;0.93;;;23.30;62.60;;;;;;5029208;28;20036;-77
2023/07/08 00:32:46;;;;;;;2.22;1.10;;;23.40;62.40;;;;;;5052938;28;20043;-78
2023/07/08 00:35:11;;;;;;;3.17;1.08;;;23.40;62.50;;;;;;5045960;28;20085;-77
2023/07/08 00:37:37;;;;;;;2.17;1.10;;;23.30;62.50;;;;;;5044923;28;20093;-77
2023/07/08 00:40:17;;;;;;;3.65;1.20;;;23.30;62.40;;;;;;5051560;28;20047;-77
2023/07/08 00:42:44;;;;;;;2.63;0.90;;;23.30;62.50;;;;;;5058658;28;20077;-77
2023/07/08 00:45:45;;;;;;;3.33;1.33;;;23.30;62.90;;;;;;5056216;28;20034;-76
2023/07/08 00:48:17;;;;;;;2.60;1.20;;;23.30;63.20;;;;;;5021010;28;20505;-76
2023/07/08 00:50:43;;;;;;;2.60;1.00;;;23.30;62.80;;;;;;5054728;28;20129;-77
2023/07/08 00:53:32;;;;;;;3.80;1.40;;;23.30;62.80;;;;;;5054993;28;20034;-77
2023/07/08 00:56:09;;;;;;;4.10;1.13;;;23.20;63.10;;;;;;5038433;28;20045;-77
2023/07/08 00:58:47;;;;;;;2.83;1.08;;;23.10;63.30;;;;;;5053135;28;20040;-77
2023/07/08 01:01:13;;;;;;;2.33;1.10;;;23.00;63.50;;;;;;5046647;28;20033;-76
2023/07/08 01:04:01;;;;;;;1.80;0.95;;;23.10;63.70;;;;;;5044697;28;20063;-77
2023/07/08 01:06:31;;;;;;;2.08;1.10;;;23.00;63.50;;;;;;5051631;28;20021;-78
2023/07/08 01:09:02;;;;;;;2.08;1.00;;;22.90;63.70;;;;;;5048292;28;20029;-77
2023/07/08 01:11:29;;;;;;;5.68;1.15;;;22.80;64.00;;;;;;5045681;28;20021;-77
2023/07/08 01:13:55;;;;;;;3.80;1.10;;;22.80;64.30;;;;;;5042916;28;20052;-77
2023/07/08 01:16:22;;;;;;;2.72;0.90;;;22.80;64.30;;;;;;5042054;28;20025;-77
2023/07/08 01:18:52;;;;;;;2.45;1.20;;;22.70;64.30;;;;;;5043188;28;20029;-77
2023/07/08 01:21:33;;;;;;;1.85;1.20;;;22.70;64.40;;;;;;5025632;28;20053;-77
2023/07/08 01:24:02;;;;;;;3.47;1.10;;;22.60;64.50;;;;;;5026349;28;20025;-76
2023/07/08 01:26:30;;;;;;;3.47;1.00;;;22.60;64.70;;;;;;5053547;28;20037;-77
2023/07/08 01:28:56;;;;;;;3.17;1.23;;;22.60;64.80;;;;;;5023728;28;20025;-76
2023/07/08 01:31:23;;;;;;;2.90;1.08;;;22.50;64.80;;;;;;5046128;28;20025;-77
2023/07/08 01:33:51;;;;;;;1.65;1.08;;;22.40;65.20;;;;;;5032586;28;20034;-77
2023/07/08 01:36:17;;;;;;;4.45;1.38;;;22.40;65.50;;;;;;5034700;28;20033;-77
2023/07/08 01:38:44;;;;;;;3.13;1.30;;;22.40;65.40;;;;;;5050725;28;20038;-77
2023/07/08 01:41:16;;;;;;;2.15;1.02;;;22.40;65.60;;;;;;5042005;28;20197;-76
2023/07/08 01:43:42;;;;;;;1.43;1.03;;;22.40;65.30;;;;;;5042465;28;20049;-76
2023/07/08 01:46:19;;;;;;;3.55;0.90;;;22.40;65.60;;;;;;5046679;28;20040;-77
2023/07/08 01:48:49;;;;;;;2.97;1.02;;;22.40;65.80;;;;;;5040933;28;20061;-77
2023/07/08 01:51:14;;;;;;;5.65;1.45;;;22.30;66.00;;;;;;5039118;28;20590;-78
2023/07/08 01:53:42;;;;;;;3.22;1.00;;;22.30;66.10;;;;;;5040780;28;20133;-76
2023/07/08 01:56:10;;;;;;;2.25;1.02;;;22.30;66.20;;;;;;5044901;28;20101;-77
2023/07/08 01:58:36;;;;;;;4.65;1.00;;;22.30;66.40;;;;;;5042551;28;20041;-77
2023/07/08 02:01:02;;;;;;;1.63;1.00;;;22.30;66.40;;;;;;5043088;28;20033;-77
2023/07/08 02:03:28;;;;;;;4.68;1.23;;;22.20;66.70;;;;;;5040630;28;20022;-77
2023/07/08 02:05:54;;;;;;;2.08;1.48;;;22.20;66.70;;;;;;5042797;28;20568;-76
2023/07/08 02:08:20;;;;;;;2.38;1.08;;;22.20;66.40;;;;;;5039206;28;20091;-76
2023/07/08 02:10:50;;;;;;;4.57;1.45;;;22.20;66.80;;;;;;5041386;28;20026;-77
2023/07/08 02:13:16;;;;;;;3.05;1.20;;;22.10;67.00;;;;;;5044487;28;20051;-77
2023/07/08 02:15:42;;;;;;;2.30;1.55;;;22.10;67.30;;;;;;5048959;28;20029;-76
2023/07/08 02:18:07;;;;;;;2.47;1.52;;;22.10;67.30;;;;;;5040060;28;20362;-76
2023/07/08 02:20:33;;;;;;;2.40;0.90;;;22.10;67.30;;;;;;5044874;28;20103;-77
2023/07/08 02:22:58;;;;;;;2.60;1.10;;;22.10;67.50;;;;;;5031394;28;20065;-77
2023/07/08 02:25:24;;;;;;;2.30;0.98;;;22.00;67.70;;;;;;5048942;28;20040;-76
2023/07/08 02:27:50;;;;;;;1.55;0.82;;;22.00;67.60;;;;;;5032539;28;20037;-76
2023/07/08 02:30:16;;;;;;;1.95;0.90;;;22.10;67.60;;;;;;5050304;28;20021;-77
2023/07/08 02:32:41;;;;;;;2.13;1.10;;;22.10;67.70;;;;;;5048435;28;20060;-78
2023/07/08 02:35:08;;;;;;;4.75;1.27;;;22.10;67.60;;;;;;5035728;28;20033;-77
2023/07/08 02:37:34;;;;;;;2.70;1.20;;;22.00;67.70;;;;;;5051380;28;20037;-76
2023/07/08 02:40:00;;;;;;;2.40;1.10;;;22.00;68.00;;;;;;5045164;28;20279;-77
2023/07/08 02:42:26;;;;;;;4.43;1.10;;;22.00;68.10;;;;;;5048415;28;20108;-77
2023/07/08 02:44:52;;;;;;;2.45;1.50;;;22.10;68.10;;;;;;5046895;28;20053;-77
2023/07/08 02:47:17;;;;;;;4.07;1.42;;;22.00;68.10;;;;;;5048731;28;20068;-77
2023/07/08 02:49:45;;;;;;;1.63;0.90;;;22.00;68.10;;;;;;5052182;28;20083;-77
2023/07/08 02:52:11;;;;;;;2.95;1.00;;;22.00;68.20;;;;;;5050607;28;20040;-78
2023/07/08 02:54:37;;;;;;;6.47;1.23;;;22.00;68.20;;;;;;5047820;28;20026;-77
2023/07/08 02:57:03;;;;;;;2.13;1.30;;;22.00;68.20;;;;;;5029534;28;20064;-77
2023/07/08 02:59:28;;;;;;;2.97;1.10;;;21.90;68.50;;;;;;5046895;28;20079;-77
2023/07/08 03:01:54;;;;;;;3.55;0.90;;;21.90;68.80;;;;;;5044427;28;20029;-77
2023/07/08 03:04:21;;;;;;;2.17;1.10;;;21.90;68.70;;;;;;5045466;28;20083;-77
2023/07/08 03:06:50;;;;;;;6.32;1.40;;;21.90;68.60;;;;;;5046085;28;20038;-77
2023/07/08 03:09:17;;;;;;;1.42;1.05;;;21.80;68.70;;;;;;5030787;28;20144;-77
2023/07/08 03:11:42;;;;;;;2.42;1.08;;;21.80;68.80;;;;;;5046730;28;20087;-77
2023/07/08 03:14:08;;;;;;;4.50;1.10;;;21.80;69.00;;;;;;5047436;28;20029;-77
2023/07/08 03:16:34;;;;;;;2.85;1.55;;;21.80;69.10;;;;;;5029367;28;20096;-77
2023/07/08 03:18:59;;;;;;;2.15;1.30;;;21.70;69.30;;;;;;5028150;28;20041;-77
2023/07/08 03:21:25;;;;;;;3.10;1.40;;;21.60;69.60;;;;;;5044942;28;20057;-77
2023/07/08 03:23:51;;;;;;;2.15;1.10;;;21.60;69.90;;;;;;5027690;28;20026;-77
2023/07/08 03:26:21;;;;;;;2.15;1.50;;;21.50;69.90;;;;;;5045960;28;20033;-77
2023/07/08 03:28:47;;;;;;;1.92;1.13;;;21.60;70.00;;;;;;5047165;28;20021;-77
2023/07/08 03:31:13;;;;;;;3.10;1.33;;;21.60;69.90;;;;;;5026200;28;20056;-77
2023/07/08 03:33:39;;;;;;;1.98;1.13;;;21.50;70.10;;;;;;5035790;28;20026;-78
2023/07/08 03:36:11;;;;;;;2.22;1.40;;;21.50;70.30;;;;;;5037046;28;20120;-78
2023/07/08 03:38:36;;;;;;;2.30;1.10;;;21.50;70.40;;;;;;5052820;28;20029;-78
2023/07/08 03:41:02;;;;;;;5.05;1.23;;;21.50;70.30;;;;;;5052006;28;20029;-78
2023/07/08 03:43:28;;;;;;;2.95;1.42;;;21.60;70.30;;;;;;5032840;28;20033;-78
2023/07/08 03:45:53;;;;;;;4.47;1.20;;;21.50;70.50;;;;;;5050816;28;20025;-78
2023/07/08 03:48:19;;;;;;;2.38;1.20;;;21.50;70.60;;;;;;5049935;28;20044;-78
2023/07/08 03:50:44;;;;;;;3.60;1.23;;;21.60;70.30;;;;;;5032370;28;20037;-78
2023/07/08 03:53:10;;;;;;;3.95;1.20;;;21.60;70.10;;;;;;5048334;28;20040;-78
2023/07/08 03:55:36;;;;;;;2.92;1.30;;;21.60;70.30;;;;;;5048746;28;20067;-78
2023/07/08 03:58:01;;;;;;;4.18;1.48;;;21.50;70.10;;;;;;5047339;28;20456;-78
2023/07/08 04:00:27;;;;;;;1.92;1.20;;;21.60;70.30;;;;;;5051101;28;20064;-78
2023/07/08 04:02:53;;;;;;;2.63;1.02;;;21.50;70.50;;;;;;5048489;28;20088;-75
2023/07/08 04:05:21;;;;;;;3.35;1.20;;;21.60;70.60;;;;;;5042644;28;20082;-77
2023/07/08 04:07:47;;;;;;;4.80;1.48;;;21.60;70.50;;;;;;5044168;28;20037;-77
2023/07/08 04:10:14;;;;;;;3.60;1.05;;;21.60;70.30;;;;;;5045847;28;20029;-77
2023/07/08 04:12:40;;;;;;;2.97;1.13;;;21.60;70.40;;;;;;5044940;28;20363;-77
2023/07/08 04:15:09;;;;;;;1.73;1.10;;;21.40;70.70;;;;;;5044577;28;20035;-76
2023/07/08 04:17:46;;;;;;;3.60;1.48;;;21.40;71.00;;;;;;5046389;28;20042;-77
2023/07/08 04:20:15;;;;;;;2.78;1.20;;;21.40;70.70;;;;;;5043279;28;20382;-77
2023/07/08 04:22:41;;;;;;;3.17;1.30;;;21.50;70.40;;;;;;5025392;28;20054;-76
2023/07/08 04:25:07;;;;;;;2.90;1.20;;;21.60;70.50;;;;;;5023224;28;20037;-77
2023/07/08 04:27:33;;;;;;;2.03;1.20;;;21.60;70.60;;;;;;5039875;28;20041;-76
2023/07/08 04:29:59;;;;;;;1.73;1.17;;;21.50;70.70;;;;;;5038539;28;20026;-77
2023/07/08 04:32:24;;;;;;;3.65;1.10;;;21.60;70.60;;;;;;5026133;28;20461;-77
2023/07/08 04:34:51;;;;;;;4.53;1.38;;;21.60;70.70;;;;;;5045451;28;20566;-76
2023/07/08 04:37:19;;;;;;;3.63;1.30;;;21.50;70.50;;;;;;5026068;28;20064;-77
2023/07/08 04:39:45;;;;;;;2.63;1.52;;;21.50;70.80;;;;;;5043456;28;20028;-77
2023/07/08 04:42:13;;;;;;;2.95;1.30;;;21.40;71.00;;;;;;5042231;28;20025;-77
2023/07/08 04:44:38;;;;;;;4.32;0.90;;;21.40;71.10;;;;;;5025000;28;20033;-76
2023/07/08 04:47:04;;;;;;;1.73;1.20;;;21.30;71.60;;;;;;5042191;28;20041;-77
2023/07/08 04:49:31;;;;;;;3.13;1.42;;;21.30;71.70;;;;;;5025119;28;20157;-77
2023/07/08 04:51:58;;;;;;;2.97;1.38;;;21.40;71.60;;;;;;5022954;28;20034;-77
2023/07/08 04:54:24;;;;;;;7.10;1.85;;;21.40;71.50;;;;;;5042004;28;20032;-77
2023/07/08 04:56:50;;;;;;;4.15;1.40;;;21.50;71.60;;;;;;5040854;28;20434;-76
2023/07/08 04:59:17;;;;;;;3.63;1.17;;;21.50;71.60;;;;;;5020605;28;20037;-77
2023/07/08 05:01:44;;;;;;;4.68;1.60;;;21.40;71.60;;;;;;5040000;28;20083;-77
2023/07/08 05:04:13;;;;;;;3.00;0.90;;;21.30;71.80;;;;;;5038679;28;20030;-77
2023/07/08 05:06:40;;;;;;;2.50;1.20;;;21.30;72.20;;;;;;5040552;28;20033;-77
2023/07/08 05:09:06;;;;;;;1.58;1.13;;;21.30;72.10;;;;;;5039612;28;20060;-77
2023/07/08 05:11:32;;;;;;;2.70;1.40;;;21.40;72.00;;;;;;5039692;28;20111;-77
2023/07/08 05:13:58;;;;;;;1.13;1.00;;;21.50;71.90;;;;;;5026260;28;20030;-77
2023/07/08 05:16:24;;;;;;;2.70;1.23;;;21.40;72.10;;;;;;5044687;28;20033;-77
2023/07/08 05:18:49;;;;;;;2.55;1.60;;;21.40;72.00;;;;;;5043747;28;20030;-77
2023/07/08 05:21:17;;;;;;;2.28;1.02;;;21.50;71.80;;;;;;5023664;28;20099;-77
2023/07/08 05:23:44;;;;;;;2.17;1.27;;;21.50;71.70;;;;;;5042992;28;20051;-77
2023/07/08 05:26:09;;;;;;;2.75;1.63;;;21.40;71.90;;;;;;5044007;28;20140;-78
2023/07/08 05:28:35;;;;;;;3.58;1.17;;;21.40;72.10;;;;;;5042242;28;20073;-77
2023/07/08 05:31:01;;;;;;;1.80;1.02;;;21.50;72.00;;;;;;5040183;28;20029;-77
2023/07/08 05:33:28;;;;;;;3.10;1.38;;;21.50;72.00;;;;;;5041620;28;20034;-77
2023/07/08 05:35:54;;;;;;;2.20;1.25;;;21.50;72.10;;;;;;5041414;28;20136;-77
2023/07/08 05:38:21;;;;;;;4.68;1.50;;;21.60;71.80;;;;;;5042821;28;20045;-78
2023/07/08 05:41:04;;;;;;;1.52;1.05;;;21.60;71.80;;;;;;5042137;28;20048;-77
2023/07/08 05:43:30;;;;;;;3.30;1.10;;;21.60;72.10;;;;;;5041626;28;20033;-78
2023/07/08 05:46:00;;;;;;;1.67;1.00;;;21.70;72.10;;;;;;5040011;28;20478;-77
2023/07/08 05:48:26;;;;;;;3.30;1.65;;;21.80;72.60;;;;;;5036872;28;20041;-77
2023/07/08 05:50:52;;;;;;;2.67;1.65;;;21.80;72.00;;;;;;5017870;28;20403;-77
2023/07/08 05:53:20;;;;;;;4.78;1.23;;;21.80;71.70;;;;;;5019962;28;20124;-77
2023/07/08 05:55:46;;;;;;;2.15;1.27;;;21.80;72.00;;;;;;5037167;28;20029;-78
2023/07/08 05:58:15;;;;;;;2.47;1.13;;;21.70;71.80;;;;;;5021527;28;20041;-78
2023/07/08 06:00:42;;;;;;;1.77;0.90;;;21.70;72.00;;;;;;5022899;28;20064;-77
2023/07/08 06:03:07;;;;;;;2.78;1.00;;;21.70;71.80;;;;;;5028994;28;20039;-78
2023/07/08 06:05:33;;;;;;;1.40;1.20;;;21.70;71.90;;;;;;5048977;28;20033;-77
2023/07/08 06:07:59;;;;;;;3.38;1.13;;;21.70;72.00;;;;;;5048075;28;20091;-78
2023/07/08 06:10:24;;;;;;;3.40;1.35;;;21.80;71.50;;;;;;5029592;28;20101;-78
2023/07/08 06:12:50;;;;;;;2.78;1.30;;;21.80;71.40;;;;;;5027141;28;20038;-76
2023/07/08 06:15:16;;;;;;;5.20;1.20;;;21.90;71.30;;;;;;5042739;28;20026;-77
2023/07/08 06:17:42;;;;;;;3.53;1.83;;;22.00;71.30;;;;;;5025611;28;20120;-77
2023/07/08 06:20:08;;;;;;;4.50;1.30;;;22.10;71.00;;;;;;5039416;28;20086;-77
2023/07/08 06:22:33;;;;;;;3.15;1.38;;;22.20;71.00;;;;;;5045348;28;20068;-78
2023/07/08 06:24:59;;;;;;;2.20;1.48;;;22.20;70.80;;;;;;5039198;28;20397;-77
2023/07/08 06:27:25;;;;;;;3.30;1.35;;;22.30;70.80;;;;;;5034389;28;20138;-73
2023/07/08 06:29:50;;;;;;;2.95;1.58;;;22.40;70.80;;;;;;5033743;28;20393;-73
2023/07/08 06:32:16;;;;;;;4.50;1.80;;;22.50;70.40;;;;;;5032594;28;20041;-73
2023/07/08 06:34:42;;;;;;;2.40;1.00;;;22.50;70.40;;;;;;5024188;28;20391;-73
2023/07/08 06:37:07;;;;;;;4.90;1.17;;;22.50;70.80;;;;;;5033724;28;20033;-73
2023/07/08 06:39:33;;;;;;;2.45;1.08;;;22.60;70.50;;;;;;5007686;28;20048;-73
2023/07/08 06:41:59;;;;;;;3.92;1.40;;;22.70;70.60;;;;;;5033285;28;20053;-73
2023/07/08 06:44:25;;;;;;;3.72;1.70;;;22.70;70.40;;;;;;5033933;28;20380;-73
2023/07/08 06:46:51;;;;;;;2.80;1.70;;;22.80;70.90;;;;;;5016516;28;20044;-73
2023/07/08 06:49:17;;;;;;;4.22;1.67;;;22.80;71.10;;;;;;5033810;28;20033;-73
2023/07/08 06:51:44;;;;;;;2.38;1.20;;;23.00;71.10;;;;;;5033863;28;20200;-74
2023/07/08 06:54:11;;;;;;;2.78;1.50;;;23.00;70.60;;;;;;5033984;28;20033;-73
2023/07/08 06:56:40;;;;;;;3.97;1.50;;;23.10;70.70;;;;;;5033280;28;20029;-74
2023/07/08 06:59:08;;;;;;;3.50;2.20;;;23.10;70.90;;;;;;5033677;28;20029;-75
2023/07/08 07:01:38;;;;;;;4.18;1.15;;;23.20;70.50;;;;;;5033139;28;20500;-75
2023/07/08 07:04:04;;;;;;;2.35;1.40;;;23.30;70.00;;;;;;5016396;28;20421;-75
2023/07/08 07:06:30;;;;;;;2.72;1.20;;;23.40;69.70;;;;;;5033765;28;20120;-74
2023/07/08 07:08:56;;;;;;;2.60;1.40;;;23.50;69.80;;;;;;5033742;28;20037;-74
2023/07/08 07:11:21;;;;;;;2.40;1.65;;;23.60;70.60;;;;;;5033608;28;20351;-74
2023/07/08 07:13:47;;;;;;;2.55;1.67;;;23.60;69.80;;;;;;5033735;28;20163;-75
2023/07/08 07:16:13;;;;;;;2.97;1.30;;;23.60;69.40;;;;;;5015900;28;20030;-74
2023/07/08 07:18:39;;;;;;;3.67;1.33;;;23.70;69.60;;;;;;5033528;28;20482;-74
2023/07/08 07:21:04;;;;;;;5.13;1.40;;;23.70;69.90;;;;;;5033375;28;20041;-74
2023/07/08 07:23:30;;;;;;;3.75;1.63;;;23.70;69.90;;;;;;5015692;28;20040;-75
2023/07/08 07:25:57;;;;;;;5.95;1.77;;;23.80;70.00;;;;;;5033611;28;20158;-74
2023/07/08 07:28:23;;;;;;;6.50;2.00;;;23.90;69.70;;;;;;5015725;28;20042;-74
2023/07/08 07:30:56;;;;;;;5.68;1.80;;;24.00;69.60;;;;;;5033075;28;20033;-74
2023/07/08 07:33:22;;;;;;;4.70;1.83;;;24.00;69.80;;;;;;5033027;28;20026;-74
2023/07/08 07:35:48;;;;;;;2.58;1.42;;;24.10;70.50;;;;;;5032709;28;20446;-75
2023/07/08 07:38:15;;;;;;;3.60;1.60;;;24.20;71.00;;;;;;5033363;28;20033;-72
2023/07/08 07:40:40;;;;;;;4.60;1.80;;;24.30;70.60;;;;;;5033308;28;20076;-75
2023/07/08 07:43:06;;;;;;;4.25;2.17;;;24.30;71.40;;;;;;5032750;28;20061;-75
2023/07/08 07:45:32;;;;;;;4.82;2.25;;;24.30;69.70;;;;;;5033239;28;20117;-73
2023/07/08 07:47:58;;;;;;;3.67;1.95;;;24.40;69.40;;;;;;5032942;28;20057;-75
2023/07/08 07:50:24;;;;;;;3.03;1.85;;;24.40;69.30;;;;;;5033281;28;20079;-73
2023/07/08 07:52:49;;;;;;;4.43;1.70;;;24.40;70.90;;;;;;5033169;28;20026;-74
2023/07/08 07:55:15;;;;;;;2.72;1.60;;;24.50;70.50;;;;;;5032611;28;20038;-74
2023/07/08 07:57:41;;;;;;;3.80;2.30;;;24.50;69.40;;;;;;5032881;28;20163;-74
2023/07/08 08:00:08;;;;;;;3.15;1.73;;;24.70;71.70;;;;;;5014948;28;20086;-74
2023/07/08 08:02:34;;;;;;;3.80;1.58;;;24.80;70.80;;;;;;5015369;28;20126;-74
2023/07/08 08:05:00;;;;;;;4.57;1.80;;;24.90;70.30;;;;;;5032680;28;20087;-74
2023/07/08 08:07:26;;;;;;;4.43;1.98;;;25.00;70.40;;;;;;5032851;28;20045;-74
2023/07/08 08:09:52;;;;;;;6.45;2.20;;;25.20;69.70;;;;;;5032469;28;20370;-75
2023/07/08 08:12:18;;;;;;;3.30;2.00;;;25.30;70.80;;;;;;4998687;28;20025;-74
2023/07/08 08:14:44;;;;;;;4.53;2.10;;;25.40;71.40;;;;;;5032710;28;20033;-74
2023/07/08 08:17:09;;;;;;;3.17;1.75;;;25.50;71.00;;;;;;5032586;28;20026;-74
2023/07/08 08:19:35;;;;;;;3.42;1.92;;;25.50;70.20;;;;;;5032609;28;20497;-74
2023/07/08 08:22:01;;;;;;;7.53;2.08;;;25.60;69.70;;;;;;5014740;28;20065;-74
2023/07/08 08:24:26;;;;;;;3.17;1.83;;;25.70;69.80;;;;;;5015189;28;20457;-75
2023/07/08 08:26:52;;;;;;;4.05;2.22;;;25.80;69.60;;;;;;5032599;28;20038;-75
2023/07/08 08:29:18;;;;;;;4.55;2.00;;;25.90;70.70;;;;;;5015254;28;20055;-75
2023/07/08 08:31:43;;;;;;;4.43;1.88;;;25.90;69.90;;;;;;5014500;28;20026;-75
2023/07/08 08:34:09;;;;;;;4.57;2.80;;;26.00;69.70;;;;;;5014920;28;20113;-75
2023/07/08 08:36:35;;;;;;;5.80;2.05;;;26.10;69.50;;;;;;5032919;28;20171;-75
2023/07/08 08:39:00;;;;;;;5.72;1.60;;;26.20;70.50;;;;;;5015456;28;20048;-75
2023/07/08 08:41:31;;;;;;;9.23;2.20;;;26.20;70.00;;;;;;5032776;28;20053;-75
2023/07/08 08:43:58;;;;;;;5.32;2.50;;;26.30;68.80;;;;;;5015084;28;20080;-75
2023/07/08 08:46:49;;;;;;;4.35;2.25;;;26.40;68.10;;;;;;5015093;28;20068;-75
2023/07/08 08:49:21;;;;;;;6.78;2.05;;;26.50;69.30;;;;;;5036357;28;20100;-74
2023/07/08 08:51:50;;;;;;;4.47;1.80;;;26.60;69.20;;;;;;5036359;28;20545;-74
2023/07/08 08:54:16;;;;;;;3.17;2.30;;;26.70;68.90;;;;;;5036285;28;20031;-74
2023/07/08 08:56:47;;;;;;;3.95;2.60;;;26.80;69.40;;;;;;5036239;28;20109;-75
2023/07/08 08:59:43;;;;;;;3.05;2.42;;;26.90;67.20;;;;;;5036045;28;20442;-74
2023/07/08 09:02:29;;;;;;;6.22;2.60;;;27.00;69.00;;;;;;5019132;28;20457;-75
2023/07/08 09:05:01;;;;;;;5.05;3.00;;;27.10;68.30;;;;;;5036299;28;20036;-75
2023/07/08 09:07:30;;;;;;;3.30;2.50;;;27.10;67.30;;;;;;5036140;28;20068;-75
2023/07/08 09:10:04;;;;;;;5.15;2.70;;;27.10;67.20;;;;;;5036030;28;20025;-75
2023/07/08 09:12:32;;;;;;;4.28;2.85;;;27.30;68.00;;;;;;5035699;28;20540;-74
2023/07/08 09:14:58;;;;;;;8.85;3.05;;;27.40;68.60;;;;;;5035374;28;20030;-74
2023/07/08 09:17:34;;;;;;;3.42;2.53;;;27.40;67.70;;;;;;5018181;28;20042;-73
2023/07/08 09:20:03;;;;;;;5.03;2.60;;;27.50;66.50;;;;;;5035784;28;20033;-75
2023/07/08 09:22:41;;;;;;;5.72;2.30;;;27.60;66.90;;;;;;5035484;28;20057;-75
2023/07/08 09:25:22;;;;;;;3.22;2.42;;;27.70;67.70;;;;;;5035871;28;20057;-75
2023/07/08 09:27:48;;;;;;;4.15;2.67;;;27.90;68.30;;;;;;5035322;28;20549;-75
2023/07/08 09:30:17;;;;;;;5.65;2.53;;;27.90;67.10;;;;;;5017862;28;20116;-73
2023/07/08 09:32:42;;;;;;;4.32;2.35;;;28.10;68.30;;;;;;5035707;28;20026;-74
2023/07/08 09:35:16;;;;;;;5.15;2.78;;;28.20;67.60;;;;;;5035599;28;20461;-74
2023/07/08 09:37:45;;;;;;;4.65;2.80;;;28.20;67.80;;;;;;5035257;28;20029;-74
2023/07/08 09:40:32;;;;;;;4.80;2.97;;;28.30;66.20;;;;;;5017368;28;20034;-74
2023/07/08 09:43:25;;;;;;;5.57;2.83;;;28.30;67.30;;;;;;5035453;28;20033;-74
2023/07/08 09:45:55;;;;;;;3.70;3.05;;;28.40;68.70;;;;;;5024186;28;20504;-74
2023/07/08 09:48:27;;;;;;;6.68;3.00;;;28.50;66.00;;;;;;5035242;28;20038;-74
2023/07/08 09:50:55;;;;;;;3.92;2.75;;;28.60;65.70;;;;;;5035358;28;20025;-73
2023/07/08 09:53:21;;;;;;;5.10;3.03;;;28.60;66.40;;;;;;5035336;28;20108;-74
2023/07/08 09:55:47;;;;;;;6.25;3.28;;;28.70;65.30;;;;;;5035022;28;20064;-74
2023/07/08 09:58:21;;;;;;;5.40;3.20;;;28.80;65.20;;;;;;5034206;28;20401;-75
2023/07/08 10:00:55;;;;;;;7.22;3.25;;;28.90;64.20;;;;;;5034424;28;20087;-75
2023/07/08 10:03:24;;;;;;;4.22;3.08;;;29.00;62.90;;;;;;5035074;28;20060;-73
2023/07/08 10:05:50;;;;;;;6.95;3.15;;;29.00;63.60;;;;;;5017260;28;20029;-74
2023/07/08 10:08:23;;;;;;;5.95;3.38;;;29.10;64.60;;;;;;5034726;28;20454;-74
2023/07/08 10:11:09;;;;;;;5.25;3.00;;;29.20;64.20;;;;;;5034573;28;20037;-74
2023/07/08 10:13:41;;;;;;;5.05;3.28;;;29.40;64.10;;;;;;5034957;28;20030;-74
2023/07/08 10:16:19;;;;;;;6.45;3.63;;;29.40;62.90;;;;;;5034506;28;20025;-74
2023/07/08 10:18:44;;;;;;;5.43;3.42;;;29.50;63.20;;;;;;5034583;28;20374;-73
2023/07/08 10:21:49;;;;;;;6.20;3.50;;;29.60;65.90;;;;;;5034121;28;20029;-73
2023/07/08 10:24:34;;;;;;;6.55;3.25;;;29.70;64.20;;;;;;4968966;28;20041;-74
2023/07/08 10:27:18;;;;;;;5.22;3.10;;;29.80;63.60;;;;;;5034310;28;20390;-73
2023/07/08 10:30:13;;;;;;;4.15;3.25;;;30.00;66.00;;;;;;5016611;28;20033;-74
2023/07/08 10:33:13;;;;;;;6.82;3.50;;;30.10;62.80;;;;;;5016479;28;20036;-74
2023/07/08 10:36:05;;;;;;;5.28;3.00;;;30.10;60.80;;;;;;5034274;28;20025;-73
2023/07/08 10:38:45;;;;;;;5.28;3.50;;;30.20;61.80;;;;;;5003901;28;20045;-73
2023/07/08 10:41:24;;;;;;;5.55;3.60;;;30.30;63.20;;;;;;5032772;28;20037;-73
2023/07/08 10:43:53;;;;;;;5.70;3.65;;;30.40;62.30;;;;;;5028225;28;20079;-74
2023/07/08 10:46:34;;;;;;;6.88;3.47;;;30.50;60.60;;;;;;5034273;28;20025;-73
2023/07/08 10:49:18;;;;;;;6.78;3.47;;;30.50;61.40;;;;;;5034326;28;20083;-73
2023/07/08 10:51:54;;;;;;;6.43;3.30;;;30.60;62.10;;;;;;5034199;28;20062;-73
2023/07/08 10:54:30;;;;;;;5.53;3.72;;;30.70;63.00;;;;;;5033896;28;20446;-74
2023/07/08 10:57:37;;;;;;;7.65;3.70;;;30.80;60.60;;;;;;5033490;28;20059;-73
2023/07/08 11:00:03;;;;;;;5.32;3.50;;;30.80;61.50;;;;;;5033791;28;20108;-74
2023/07/08 11:03:06;;;;;;;5.38;3.88;;;30.90;61.90;;;;;;5034092;28;20060;-74
2023/07/08 11:05:43;;;;;;;5.55;3.38;;;30.90;60.40;;;;;;5032256;28;20078;-74
2023/07/08 11:08:26;;;;;;;5.00;3.58;;;30.90;60.70;;;;;;5033556;28;20137;-74
2023/07/08 11:11:12;;;;;;;7.28;4.07;;;31.00;61.40;;;;;;5031520;28;20104;-73
2023/07/08 11:13:44;;;;;;;5.47;3.90;;;31.10;61.20;;;;;;5033343;28;20566;-73
2023/07/08 11:16:18;;;;;;;8.25;3.38;;;31.10;61.10;;;;;;5033048;28;20025;-73
2023/07/08 11:18:52;;;;;;;4.72;3.85;;;31.20;60.60;;;;;;5033621;28;20029;-73
2023/07/08 11:21:23;;;;;;;7.70;3.75;;;31.20;61.80;;;;;;5034778;28;20030;-74
2023/07/08 11:23:56;;;;;;;6.63;4.20;;;31.20;61.00;;;;;;5035226;28;20040;-74
2023/07/08 11:26:43;;;;;;;5.82;4.05;;;31.30;60.20;;;;;;5053496;28;20167;-73
2023/07/08 11:29:21;;;;;;;9.80;4.28;;;31.30;62.20;;;;;;5035240;28;20377;-73
2023/07/08 11:31:48;;;;;;;5.15;3.97;;;31.40;60.40;;;;;;5035055;28;20223;-74
2023/07/08 11:34:16;;;;;;;7.05;3.88;;;31.50;60.50;;;;;;5053188;28;20033;-73
2023/07/08 11:36:43;;;;;;;4.78;4.00;;;31.50;60.20;;;;;;5052857;28;20059;-74
2023/07/08 11:39:35;;;;;;;6.60;3.95;;;31.50;59.70;;;;;;5052956;28;20029;-74
2023/07/08 11:42:24;;;;;;;5.85;4.20;;;31.60;58.70;;;;;;5048966;28;20060;-74
2023/07/08 11:44:56;;;;;;;7.50;4.15;;;31.70;58.80;;;;;;5042378;28;20087;-74
2023/07/08 11:47:47;;;;;;;8.13;4.47;;;31.70;60.00;;;;;;5053077;28;20033;-74
2023/07/08 11:50:32;;;;;;;6.10;4.20;;;31.70;59.00;;;;;;5053130;28;20025;-73
2023/07/08 11:53:12;;;;;;;9.27;4.45;;;31.80;60.50;;;;;;5052733;28;20036;-74
2023/07/08 11:56:04;;;;;;;4.72;3.83;;;31.90;60.00;;;;;;5052950;28;20033;-73
2023/07/08 11:58:51;;;;;;;5.25;3.80;;;32.00;59.40;;;;;;5052364;28;20540;-74
2023/07/08 12:01:25;;;;;;;5.07;3.75;;;32.00;60.20;;;;;;5051336;28;20477;-73
2023/07/08 12:04:09;;;;;;;8.70;4.10;;;32.10;59.60;;;;;;5052995;28;20112;-73
2023/07/08 12:06:34;;;;;;;6.82;3.55;;;32.10;58.80;;;;;;5034878;28;20441;-73
2023/07/08 12:09:14;;;;;;;6.10;4.13;;;32.10;57.90;;;;;;5052770;28;20112;-74
2023/07/08 12:11:44;;;;;;;4.97;3.70;;;32.20;58.60;;;;;;5052572;28;20029;-73
2023/07/08 12:14:10;;;;;;;7.20;4.20;;;32.20;59.60;;;;;;5052559;28;20052;-73
2023/07/08 12:16:35;;;;;;;11.68;4.68;;;32.30;58.00;;;;;;5053168;28;20044;-74
2023/07/08 12:19:04;;;;;;;7.18;3.88;;;32.40;59.00;;;;;;5034750;28;20412;-74
2023/07/08 12:21:34;;;;;;;6.50;3.65;;;32.40;60.00;;;;;;5035140;28;20370;-74
2023/07/08 12:24:07;;;;;;;5.03;3.38;;;32.50;58.20;;;;;;5056517;28;20045;-75
2023/07/08 12:26:33;;;;;;;7.38;3.92;;;32.60;58.40;;;;;;5039225;28;20033;-75
2023/07/08 12:28:59;;;;;;;6.97;3.47;;;32.60;57.90;;;;;;5056361;28;20032;-75
2023/07/08 12:31:25;;;;;;;6.55;4.13;;;32.70;58.10;;;;;;5055997;28;20049;-75
2023/07/08 12:33:51;;;;;;;10.80;4.72;;;32.80;57.30;;;;;;5056412;28;20489;-76
2023/07/08 12:36:25;;;;;;;6.55;4.35;;;32.80;58.20;;;;;;5056369;28;20029;-76
2023/07/08 12:38:52;;;;;;;5.45;4.13;;;33.00;58.00;;;;;;5038384;28;20442;-76
2023/07/08 12:41:25;;;;;;;6.32;4.05;;;33.00;57.30;;;;;;5038469;28;20025;-76
2023/07/08 12:43:51;;;;;;;6.57;4.32;;;33.10;56.30;;;;;;5056070;28;20033;-75
2023/07/08 12:46:19;;;;;;;7.28;4.50;;;33.10;56.30;;;;;;5056149;28;20025;-74
2023/07/08 12:48:45;;;;;;;5.63;4.00;;;33.20;58.60;;;;;;5056240;28;20040;-75
2023/07/08 12:51:16;;;;;;;7.00;4.22;;;33.20;56.60;;;;;;5056202;28;20107;-75
2023/07/08 12:53:43;;;;;;;7.30;4.45;;;33.20;54.50;;;;;;5038347;28;20032;-75
2023/07/08 12:56:09;;;;;;;6.75;3.90;;;33.20;56.00;;;;;;5038239;28;20037;-75
2023/07/08 12:58:40;;;;;;;8.23;4.45;;;33.20;55.40;;;;;;5055802;28;20131;-75
2023/07/08 13:01:06;;;;;;;7.30;4.60;;;33.20;56.60;;;;;;5055822;28;20100;-75